createdAt,value
2018-11-05T00:01:13.883Z,31.40
2018-11-05T00:03:43.242Z,35.47
2018-11-05T00:06:12.097Z,30.37
2018-11-05T00:08:40.847Z,32.30
2018-11-05T00:11:09.665Z,32.27
2018-11-05T00:13:38.484Z,28.00
2018-11-05T00:16:07.371Z,30.13
2018-11-05T00:18:36.232Z,32.43
2018-11-05T00:21:05.138Z,29.70
2018-11-05T00:23:33.915Z,28.83
2018-11-05T00:26:02.732Z,35.23
2018-11-05T00:28:31.469Z,33.90
2018-11-05T00:31:00.272Z,31.57
2018-11-05T00:33:29.160Z,33.10
2018-11-05T00:35:57.897Z,30.13
2018-11-05T00:38:26.673Z,32.73
2018-11-05T00:40:55.370Z,31.40
2018-11-05T00:43:24.056Z,32.63
2018-11-05T00:45:52.935Z,32.00
2018-11-05T00:48:21.830Z,26.97
2018-11-05T00:50:51.726Z,31.30
2018-11-05T00:53:20.656Z,31.30
2018-11-05T00:55:49.586Z,34.53
2018-11-05T00:58:18.448Z,35.33
2018-11-05T01:00:47.455Z,29.90
2018-11-05T01:03:16.289Z,31.30
2018-11-05T01:05:45.395Z,33.70
2018-11-05T01:08:14.348Z,30.67
2018-11-05T01:10:43.195Z,36.90
2018-11-05T01:13:12.164Z,30.93
2018-11-05T01:15:41.069Z,31.03
2018-11-05T01:18:10.002Z,29.30
2018-11-05T01:20:38.816Z,28.57
2018-11-05T01:23:07.724Z,31.00
2018-11-05T01:25:36.648Z,30.43
2018-11-05T01:28:05.732Z,29.40
2018-11-05T01:30:34.632Z,31.47
2018-11-05T01:33:03.701Z,29.07
2018-11-05T01:35:32.703Z,30.50
2018-11-05T01:38:01.606Z,31.70
2018-11-05T01:40:30.511Z,29.30
2018-11-05T01:42:59.387Z,30.27
2018-11-05T01:45:28.388Z,34.40
2018-11-05T01:47:57.407Z,33.13
2018-11-05T01:50:26.353Z,31.00
2018-11-05T01:52:55.182Z,30.37
2018-11-05T01:55:24.175Z,32.20
2018-11-05T01:57:53.048Z,31.20
2018-11-05T02:00:21.938Z,31.53
2018-11-05T02:02:50.851Z,28.73
2018-11-05T02:05:19.753Z,33.27
2018-11-05T02:07:48.731Z,35.40
2018-11-05T02:10:18.596Z,30.37
2018-11-05T02:12:47.512Z,29.30
2018-11-05T02:15:16.541Z,29.60
2018-11-05T02:17:46.303Z,30.87
2018-11-05T02:20:16.731Z,29.23
2018-11-05T02:22:45.726Z,29.13
2018-11-05T02:25:15.235Z,31.43
2018-11-05T02:27:44.145Z,32.90
2018-11-05T02:30:17.388Z,33.60
2018-11-05T02:32:46.731Z,33.90
2018-11-05T02:35:16.534Z,38.00
2018-11-05T02:37:46.005Z,35.20
2018-11-05T02:40:20.835Z,30.77
2018-11-05T02:42:50.206Z,38.80
2018-11-05T02:45:20.073Z,37.77
2018-11-05T02:47:48.951Z,37.37
2018-11-05T02:50:17.951Z,32.90
2018-11-05T02:52:47.669Z,38.40
2018-11-05T02:55:16.509Z,35.83
2018-11-05T02:57:45.280Z,38.17
2018-11-05T03:00:15.810Z,35.07
2018-11-05T03:02:44.651Z,38.67
2018-11-05T03:05:14.780Z,37.07
2018-11-05T03:07:44.305Z,37.40
2018-11-05T03:10:13.686Z,34.37
2018-11-05T03:12:43.508Z,35.53
2018-11-05T03:15:15.394Z,30.63
2018-11-05T03:17:44.312Z,30.53
2018-11-05T03:20:14.114Z,36.50
2018-11-05T03:22:43.414Z,31.07
2018-11-05T03:25:12.625Z,39.60
2018-11-05T03:27:41.791Z,31.37
2018-11-05T03:30:16.866Z,38.20
2018-11-05T03:32:45.906Z,32.27
2018-11-05T03:35:15.569Z,31.67
2018-11-05T03:37:45.241Z,34.80
2018-11-05T03:40:14.510Z,31.80
2018-11-05T03:42:43.748Z,33.33
2018-11-05T03:45:13.747Z,32.93
2018-11-05T03:47:42.681Z,35.67
2018-11-05T03:50:13.268Z,26.83
2018-11-05T03:52:42.416Z,33.07
2018-11-05T03:55:11.261Z,49.67
2018-11-05T03:57:40.065Z,25.03
2018-11-05T04:00:10.388Z,103.93
2018-11-05T04:02:39.187Z,34.53
2018-11-05T04:05:08.340Z,33.00
2018-11-05T04:07:37.556Z,32.93
2018-11-05T04:10:07.125Z,40.70
2018-11-05T04:12:36.569Z,75.33
2018-11-05T04:15:05.521Z,72.53
2018-11-05T04:17:34.359Z,174.43
2018-11-05T04:20:03.435Z,92.00
2018-11-05T04:22:32.294Z,107.30
2018-11-05T04:25:01.350Z,57.10
2018-11-05T04:27:30.256Z,46.10
2018-11-05T04:29:59.241Z,56.17
2018-11-05T04:32:28.033Z,87.87
2018-11-05T04:34:56.846Z,56.27
2018-11-05T04:37:25.698Z,87.37
2018-11-05T04:39:54.504Z,32.53
2018-11-05T04:42:23.531Z,72.53
2018-11-05T04:44:52.422Z,73.30
2018-11-05T04:47:21.198Z,59.13
2018-11-05T04:49:49.950Z,69.40
2018-11-05T04:52:19.049Z,158.50
2018-11-05T04:54:47.888Z,67.47
2018-11-05T04:57:16.862Z,51.03
2018-11-05T04:59:46.085Z,36.33
2018-11-05T05:02:15.373Z,28.17
2018-11-05T05:04:44.260Z,29.33
2018-11-05T05:07:13.330Z,26.67
2018-11-05T05:09:42.129Z,24.53
2018-11-05T05:12:11.122Z,24.87
2018-11-05T05:14:40.008Z,28.00
2018-11-05T05:17:09.061Z,22.33
2018-11-05T05:19:37.904Z,29.03
2018-11-05T05:22:06.803Z,24.53
2018-11-05T05:24:35.627Z,22.00
2018-11-05T05:27:04.457Z,29.70
2018-11-05T05:29:33.807Z,25.60
2018-11-05T05:32:02.685Z,21.77
2018-11-05T05:34:31.521Z,29.37
2018-11-05T05:37:00.504Z,23.30
2018-11-05T05:39:29.445Z,24.57
2018-11-05T05:41:58.268Z,24.90
2018-11-05T05:44:27.121Z,22.83
2018-11-05T05:46:56.076Z,20.40
2018-11-05T05:49:25.089Z,29.40
2018-11-05T05:51:54.351Z,26.83
2018-11-05T05:54:23.353Z,21.70
2018-11-05T05:56:52.217Z,22.70
2018-11-05T05:59:21.078Z,24.07
2018-11-05T06:01:49.882Z,22.40
2018-11-05T06:04:18.874Z,25.63
2018-11-05T06:06:47.755Z,26.40
2018-11-05T06:09:16.763Z,22.67
2018-11-05T06:11:45.780Z,21.80
2018-11-05T06:14:14.887Z,24.40
2018-11-05T06:16:43.897Z,22.67
2018-11-05T06:19:13.444Z,21.53
2018-11-05T06:21:42.567Z,18.60
2018-11-05T06:24:11.525Z,21.10
2018-11-05T06:26:40.911Z,21.00
2018-11-05T06:29:09.698Z,22.37
2018-11-05T06:31:38.819Z,22.60
2018-11-05T06:34:07.884Z,19.80
2018-11-05T06:36:36.979Z,21.10
2018-11-05T06:39:09.604Z,21.83
2018-11-05T06:41:38.820Z,21.83
2018-11-05T06:44:08.863Z,23.70
2018-11-05T06:46:37.981Z,26.00
2018-11-05T06:49:07.358Z,24.97
2018-11-05T06:51:36.476Z,24.10
2018-11-05T06:54:05.843Z,26.23
2018-11-05T06:56:35.099Z,27.37
2018-11-05T06:59:04.360Z,19.83
2018-11-05T07:01:33.435Z,20.33
2018-11-05T07:04:02.284Z,27.03
2018-11-05T07:06:31.263Z,26.40
2018-11-05T07:09:00.570Z,21.73
2018-11-05T07:11:29.737Z,21.27
2018-11-05T07:13:58.893Z,20.83
2018-11-05T07:16:27.898Z,21.07
2018-11-05T07:18:57.017Z,19.87
2018-11-05T07:21:26.371Z,21.03
2018-11-05T07:23:55.327Z,19.30
2018-11-05T07:26:24.762Z,18.00
2018-11-05T07:28:53.672Z,22.83
2018-11-05T07:31:23.065Z,22.77
2018-11-05T07:33:52.134Z,21.80
2018-11-05T07:36:21.089Z,21.87
2018-11-05T07:38:50.191Z,24.67
2018-11-05T07:41:19.506Z,22.10
2018-11-05T07:43:48.560Z,23.83
2018-11-05T07:46:17.613Z,21.50
2018-11-05T07:48:46.708Z,27.27
2018-11-05T07:51:16.124Z,25.30
2018-11-05T07:53:45.084Z,25.83
2018-11-05T07:56:15.124Z,26.10
2018-11-05T07:58:44.013Z,26.73
2018-11-05T08:01:14.171Z,29.30
2018-11-05T08:03:43.060Z,31.33
2018-11-05T08:06:11.937Z,35.30
2018-11-05T08:08:40.874Z,32.77
2018-11-05T08:11:09.966Z,30.93
2018-11-05T08:13:39.046Z,29.30
2018-11-05T08:16:07.960Z,31.57
2018-11-05T08:18:36.931Z,34.77
2018-11-05T08:21:06.168Z,25.43
2018-11-05T08:23:35.045Z,25.40
2018-11-05T08:26:04.010Z,30.00
2018-11-05T08:28:32.837Z,30.07
2018-11-05T08:31:01.784Z,26.80
2018-11-05T08:33:30.809Z,29.20
2018-11-05T08:35:59.910Z,32.90
2018-11-05T08:38:28.871Z,29.60
2018-11-05T08:40:58.302Z,30.07
2018-11-05T08:43:28.525Z,30.40
2018-11-05T08:45:57.322Z,33.80
2018-11-05T08:48:26.261Z,29.83
2018-11-05T08:50:55.262Z,31.40
2018-11-05T08:53:24.151Z,30.97
2018-11-05T08:55:56.619Z,29.50
2018-11-05T08:58:36.684Z,26.57
2018-11-05T09:01:22.077Z,24.20
2018-11-05T09:03:51.231Z,30.60
2018-11-05T09:06:20.002Z,27.10
2018-11-05T09:08:49.207Z,28.00
2018-11-05T09:11:18.753Z,28.07
2018-11-05T09:13:47.399Z,24.20
2018-11-05T09:16:16.572Z,29.70
2018-11-05T09:18:45.520Z,25.80
2018-11-05T09:21:14.747Z,28.90
2018-11-05T09:23:43.609Z,24.97
2018-11-05T09:26:12.786Z,24.00
2018-11-05T09:28:41.672Z,24.50
2018-11-05T09:31:10.640Z,22.40
2018-11-05T09:33:39.618Z,21.83
2018-11-05T09:36:08.560Z,23.80
2018-11-05T09:38:37.635Z,20.53
2018-11-05T09:41:08.039Z,20.67
2018-11-05T09:43:37.517Z,18.73
2018-11-05T09:46:07.021Z,23.40
2018-11-05T09:48:36.645Z,21.20
2018-11-05T09:51:05.892Z,19.30
2018-11-05T09:53:35.097Z,21.20
2018-11-05T09:56:04.135Z,17.53
2018-11-05T09:58:33.081Z,22.33
2018-11-05T10:04:25.563Z,17.10
2018-11-05T10:06:54.396Z,17.93
2018-11-05T10:09:23.090Z,18.27
2018-11-05T10:11:52.143Z,16.50
2018-11-05T10:14:20.959Z,15.17
2018-11-05T10:16:49.768Z,17.63
2018-11-05T10:19:18.749Z,16.30
2018-11-05T10:21:47.581Z,17.87
2018-11-05T10:24:16.273Z,14.60
2018-11-05T10:26:44.985Z,18.67
2018-11-05T10:29:14.540Z,17.07
2018-11-05T10:31:43.307Z,13.03
2018-11-05T10:34:12.041Z,18.03
2018-11-05T10:36:40.818Z,12.80
2018-11-05T10:39:10.031Z,11.17
2018-11-05T10:41:38.816Z,12.30
2018-11-05T10:44:07.810Z,15.43
2018-11-05T10:46:36.674Z,10.83
2018-11-05T10:49:05.560Z,9.80
2018-11-05T10:51:34.387Z,11.67
2018-11-05T10:54:03.171Z,12.97
2018-11-05T10:56:31.969Z,13.80
2018-11-05T10:59:00.880Z,15.23
2018-11-05T11:01:34.834Z,16.83
2018-11-05T11:04:08.822Z,13.57
2018-11-05T11:06:37.870Z,14.10
2018-11-05T11:09:08.482Z,14.10
2018-11-05T11:11:37.432Z,16.20
2018-11-05T11:14:06.164Z,20.33
2018-11-05T11:16:35.064Z,15.40
2018-11-05T11:19:03.908Z,12.87
2018-11-05T11:21:32.684Z,19.10
2018-11-05T11:24:01.492Z,20.67
2018-11-05T11:26:30.171Z,21.00
2018-11-05T11:28:59.090Z,15.30
2018-11-05T11:31:27.769Z,22.73
2018-11-05T11:33:56.516Z,19.87
2018-11-05T11:36:25.420Z,18.63
2018-11-05T11:38:54.150Z,24.33
2018-11-05T11:41:23.026Z,18.60
2018-11-05T11:43:51.793Z,16.40
2018-11-05T11:46:20.524Z,18.87
2018-11-05T11:48:49.485Z,17.60
2018-11-05T11:51:18.189Z,14.13
2018-11-05T11:53:47.049Z,15.53
2018-11-05T11:56:15.956Z,15.23
2018-11-05T11:58:44.807Z,15.60
2018-11-05T12:01:13.596Z,11.20
2018-11-05T12:03:42.404Z,16.47
2018-11-05T12:06:11.142Z,13.33
2018-11-05T12:08:39.884Z,15.80
2018-11-05T12:11:08.910Z,13.30
2018-11-05T12:13:37.664Z,11.30
2018-11-05T12:16:06.651Z,15.77
2018-11-05T12:18:35.463Z,16.97
2018-11-05T12:21:04.321Z,16.13
2018-11-05T12:23:33.021Z,11.00
2018-11-05T12:26:01.856Z,11.63
2018-11-05T12:28:30.796Z,14.47
2018-11-05T12:30:59.609Z,13.27
2018-11-05T12:33:28.416Z,12.23
2018-11-05T12:35:57.166Z,16.53
2018-11-05T12:38:25.972Z,9.87
2018-11-05T12:40:54.742Z,14.57
2018-11-05T12:43:23.520Z,8.10
2018-11-05T12:45:52.310Z,9.10
2018-11-05T12:48:21.432Z,11.50
2018-11-05T12:50:50.196Z,13.23
2018-11-05T12:53:18.990Z,8.83
2018-11-05T12:55:47.787Z,14.63
2018-11-05T12:58:16.676Z,12.87
2018-11-05T13:00:45.458Z,13.47
2018-11-05T13:03:14.238Z,14.40
2018-11-05T13:05:43.153Z,14.73
2018-11-05T13:08:11.869Z,17.03
2018-11-05T13:10:40.605Z,12.20
2018-11-05T13:13:09.868Z,13.10
2018-11-05T13:15:38.740Z,15.47
2018-11-05T13:18:07.580Z,12.23
2018-11-05T13:20:36.273Z,17.80
2018-11-05T13:23:05.460Z,15.70
2018-11-05T13:25:34.284Z,17.70
2018-11-05T13:28:03.265Z,15.20
2018-11-05T13:30:32.056Z,14.53
2018-11-05T13:33:00.877Z,15.20
2018-11-05T13:35:29.843Z,16.17
2018-11-05T13:37:59.161Z,17.73
2018-11-05T13:40:27.440Z,20.47
2018-11-05T13:42:57.150Z,21.43
2018-11-05T13:45:26.204Z,19.53
2018-11-05T13:47:55.430Z,24.20
2018-11-05T13:50:23.976Z,17.53
2018-11-05T13:52:52.585Z,23.50
2018-11-05T13:55:21.300Z,21.97
2018-11-05T13:57:50.242Z,25.53
2018-11-05T14:00:20.339Z,27.47
2018-11-05T14:02:49.529Z,26.43
2018-11-05T14:05:18.373Z,25.97
2018-11-05T14:07:47.084Z,31.73
2018-11-05T14:10:19.210Z,26.53
2018-11-05T14:12:48.396Z,26.83
2018-11-05T14:15:17.551Z,24.73
2018-11-05T14:17:46.562Z,28.47
2018-11-05T14:20:16.627Z,25.77
2018-11-05T14:22:45.337Z,23.90
2018-11-05T14:25:17.344Z,32.27
2018-11-05T14:27:47.500Z,32.50
2018-11-05T14:30:16.109Z,26.53
2018-11-05T14:32:45.993Z,27.53
2018-11-05T14:35:14.770Z,24.20
2018-11-05T14:37:43.514Z,27.17
2018-11-05T14:40:14.065Z,22.00
2018-11-05T14:42:42.901Z,23.53
2018-11-05T14:45:13.504Z,28.23
2018-11-05T14:47:43.269Z,35.97
2018-11-05T14:50:13.669Z,19.70
2018-11-05T14:52:42.440Z,24.87
2018-11-05T14:55:13.324Z,29.77
2018-11-05T14:57:42.882Z,33.87
2018-11-05T15:00:16.762Z,27.33
2018-11-05T15:02:46.464Z,25.03
2018-11-05T15:05:15.654Z,33.50
2018-11-05T15:07:45.444Z,26.53
2018-11-05T15:10:15.368Z,29.50
2018-11-05T15:12:44.403Z,37.50
2018-11-05T15:15:13.896Z,29.60
2018-11-05T15:17:43.280Z,32.77
2018-11-05T15:20:14.728Z,29.40
2018-11-05T15:22:43.349Z,25.80
2018-11-05T15:25:12.580Z,39.70
2018-11-05T15:27:41.465Z,25.63
2018-11-05T15:30:16.465Z,25.43
2018-11-05T15:32:45.379Z,34.47
2018-11-05T15:35:14.774Z,34.10
2018-11-05T15:37:44.075Z,27.60
2018-11-05T15:40:15.621Z,25.87
2018-11-05T15:42:44.441Z,25.63
2018-11-05T15:45:14.536Z,32.73
2018-11-05T15:47:43.572Z,30.60
2018-11-05T15:50:13.652Z,41.10
2018-11-05T15:52:42.847Z,25.00
2018-11-05T15:55:11.632Z,34.13
2018-11-05T15:57:40.603Z,28.10
2018-11-05T16:00:16.494Z,38.53
2018-11-05T16:02:46.489Z,41.37
2018-11-05T16:05:15.310Z,34.70
2018-11-05T16:07:44.490Z,29.57
2018-11-05T16:10:13.362Z,32.17
2018-11-05T16:12:42.217Z,30.23
2018-11-05T16:15:11.717Z,34.40
2018-11-05T16:17:40.470Z,42.07
2018-11-05T16:20:12.191Z,34.50
2018-11-05T16:22:41.010Z,34.20
2018-11-05T16:25:09.810Z,37.37
2018-11-05T16:27:38.704Z,40.97
2018-11-05T16:30:12.593Z,35.37
2018-11-05T16:32:41.773Z,35.40
2018-11-05T16:35:10.668Z,36.73
2018-11-05T16:37:39.477Z,30.83
2018-11-05T16:40:10.429Z,38.20
2018-11-05T16:42:39.511Z,26.23
2018-11-05T16:45:09.417Z,38.73
2018-11-05T16:47:38.816Z,39.30
2018-11-05T16:50:12.919Z,34.23
2018-11-05T16:52:41.825Z,32.60
2018-11-05T16:55:12.267Z,40.20
2018-11-05T16:57:41.881Z,38.23
2018-11-05T17:00:11.101Z,33.43
2018-11-05T17:02:40.451Z,34.83
2018-11-05T17:05:10.071Z,38.03
2018-11-05T17:07:39.270Z,34.00
2018-11-05T17:10:09.701Z,35.83
2018-11-05T17:12:43.292Z,45.60
2018-11-05T17:15:15.550Z,41.00
2018-11-05T17:17:45.274Z,40.00
2018-11-05T17:20:19.243Z,42.53
2018-11-05T17:22:48.405Z,42.57
2018-11-05T17:25:18.108Z,39.23
2018-11-05T17:27:48.126Z,33.73
2018-11-05T17:30:20.588Z,37.53
2018-11-05T17:32:49.837Z,35.63
2018-11-05T17:35:19.926Z,31.20
2018-11-05T17:37:49.652Z,38.87
2018-11-05T17:40:20.856Z,36.37
2018-11-05T17:42:50.286Z,38.33
2018-11-05T17:45:20.804Z,44.60
2018-11-05T17:47:50.573Z,44.43
2018-11-05T17:50:21.296Z,44.30
2018-11-05T17:52:51.388Z,44.13
2018-11-05T17:55:21.254Z,48.20
2018-11-05T17:57:50.692Z,47.27
2018-11-05T18:00:21.882Z,42.33
2018-11-05T18:02:50.966Z,36.70
2018-11-05T18:05:20.206Z,41.07
2018-11-05T18:07:49.356Z,35.00
2018-11-05T18:10:18.574Z,55.37
2018-11-05T18:12:47.737Z,42.67
2018-11-05T18:15:17.151Z,42.93
2018-11-05T18:17:47.115Z,42.20
2018-11-05T18:22:50.722Z,50.90
2018-11-05T18:25:20.643Z,58.13
2018-11-05T18:27:49.630Z,54.17
2018-11-05T18:30:19.080Z,49.53
2018-11-05T18:32:48.422Z,52.47
2018-11-05T18:35:17.667Z,56.10
2018-11-05T18:37:48.212Z,50.67
2018-11-05T18:40:17.493Z,53.77
2018-11-05T18:42:46.456Z,57.40
2018-11-05T18:45:15.569Z,48.13
2018-11-05T18:47:44.724Z,48.00
2018-11-05T18:50:15.613Z,48.37
2018-11-05T18:52:45.297Z,50.60
2018-11-05T18:55:15.605Z,49.33
2018-11-05T18:57:45.776Z,56.93
2018-11-05T19:00:20.168Z,52.30
2018-11-05T19:02:49.934Z,54.00
2018-11-05T19:05:19.276Z,59.37
2018-11-05T19:07:48.332Z,55.50
2018-11-05T19:10:18.108Z,50.57
2018-11-05T19:12:47.820Z,51.67
2018-11-05T19:15:17.179Z,46.33
2018-11-05T19:17:47.144Z,45.10
2018-11-05T19:20:16.360Z,50.83
2018-11-05T19:22:45.702Z,56.37
2018-11-05T19:25:15.900Z,56.17
2018-11-05T19:27:45.760Z,52.67
2018-11-05T19:30:17.418Z,53.20
2018-11-05T19:32:46.636Z,48.83
2018-11-05T19:35:15.944Z,54.27
2018-11-05T19:37:45.214Z,56.80
2018-11-05T19:40:15.154Z,57.10
2018-11-05T19:42:45.081Z,61.63
2018-11-05T19:45:15.979Z,57.63
2018-11-05T19:47:45.099Z,60.60
2018-11-05T19:50:16.039Z,60.27
2018-11-05T19:52:45.911Z,64.13
2018-11-05T19:55:15.885Z,58.20
2018-11-05T19:57:45.594Z,59.20
2018-11-05T20:00:20.875Z,58.80
2018-11-05T20:02:50.498Z,53.27
2018-11-05T20:05:19.458Z,51.27
2018-11-05T20:07:48.913Z,62.50
2018-11-05T20:10:18.046Z,60.53
2018-11-05T20:12:47.205Z,69.83
2018-11-05T20:15:16.400Z,58.97
2018-11-05T20:17:46.249Z,70.67
2018-11-05T20:20:16.736Z,61.20
2018-11-05T20:22:45.684Z,64.40
2018-11-05T20:25:14.628Z,60.17
2018-11-05T20:27:43.723Z,70.60
2018-11-05T20:30:16.145Z,70.50
2018-11-05T20:32:46.403Z,62.17
2018-11-05T20:35:15.138Z,63.00
2018-11-05T20:37:44.029Z,53.33
2018-11-05T20:40:16.867Z,54.87
2018-11-05T20:42:46.671Z,60.93
2018-11-05T20:45:16.284Z,50.03
2018-11-05T20:47:45.306Z,43.73
2018-11-05T20:50:15.322Z,51.37
2018-11-05T20:52:44.331Z,38.00
2018-11-05T20:55:14.505Z,28.47
2018-11-05T20:57:43.491Z,15.27
2018-11-05T21:00:14.147Z,13.37
2018-11-05T21:02:43.540Z,19.73
2018-11-05T21:05:12.698Z,18.60
2018-11-05T21:07:42.356Z,15.80
2018-11-05T21:10:12.203Z,15.83
2018-11-05T21:12:41.922Z,16.63
2018-11-05T21:15:15.451Z,26.77
2018-11-05T21:17:45.130Z,24.13
2018-11-05T21:20:15.557Z,28.63
2018-11-05T21:22:44.845Z,24.30
2018-11-05T21:25:14.113Z,24.60
2018-11-05T21:27:43.525Z,27.07
2018-11-05T21:30:14.602Z,26.07
2018-11-05T21:32:43.586Z,32.53
2018-11-05T21:35:14.282Z,31.23
2018-11-05T21:37:51.481Z,24.77
2018-11-05T21:40:21.050Z,26.40
2018-11-05T21:42:50.061Z,28.87
2018-11-05T21:45:19.004Z,22.40
2018-11-05T21:50:40.450Z,16.37
2018-11-05T21:53:09.579Z,16.40
2018-11-05T21:55:38.314Z,8.30
2018-11-05T21:58:07.209Z,19.47
2018-11-05T22:00:36.036Z,10.50
2018-11-05T22:03:08.956Z,10.50
2018-11-05T22:05:37.725Z,6.20
2018-11-05T22:08:06.945Z,8.03
2018-11-05T22:10:35.909Z,7.40
2018-11-05T22:13:04.950Z,8.13
2018-11-05T22:15:39.123Z,6.10
2018-11-05T22:18:08.030Z,6.00
2018-11-05T22:20:55.127Z,4.63
2018-11-05T22:23:24.121Z,4.87
2018-11-05T22:25:53.012Z,6.20
2018-11-05T22:28:21.823Z,4.20
2018-11-05T22:30:50.618Z,7.43
2018-11-05T22:33:19.597Z,7.57
2018-11-05T22:35:48.574Z,5.77
2018-11-05T22:38:17.555Z,4.43
2018-11-05T22:40:47.582Z,6.87
2018-11-05T22:43:16.518Z,6.93
2018-11-05T22:45:45.700Z,3.97
2018-11-05T22:48:14.521Z,4.50
2018-11-05T22:50:43.276Z,5.33
2018-11-05T22:53:12.154Z,2.73
2018-11-05T22:55:41.040Z,3.13
2018-11-05T22:58:10.096Z,4.07
2018-11-05T23:00:44.251Z,5.17
2018-11-05T23:03:18.265Z,3.70
2018-11-05T23:05:47.140Z,4.00
2018-11-05T23:08:16.233Z,4.80
2018-11-05T23:10:45.072Z,5.00
2018-11-05T23:13:13.896Z,3.87
2018-11-05T23:15:42.677Z,3.87
2018-11-05T23:18:11.645Z,4.80
2018-11-05T23:20:40.382Z,7.00
2018-11-05T23:23:09.431Z,3.73
2018-11-05T23:25:38.260Z,7.50
2018-11-05T23:28:07.172Z,6.30
2018-11-05T23:30:35.968Z,4.10
2018-11-05T23:33:04.814Z,3.70
2018-11-05T23:35:33.542Z,5.67
2018-11-05T23:38:02.329Z,4.30
2018-11-05T23:40:31.212Z,5.30
2018-11-05T23:42:59.950Z,4.83
2018-11-05T23:45:28.765Z,3.40
2018-11-05T23:47:57.525Z,5.07
2018-11-05T23:50:26.442Z,3.20
2018-11-05T23:52:55.224Z,3.83
2018-11-05T23:55:24.027Z,6.00
2018-11-05T23:57:52.760Z,4.30
